createdAt,value
2023-05-25T00:00:25.306Z,15.47
2023-05-25T00:02:56.440Z,15.51
2023-05-25T00:05:29.448Z,15.51
2023-05-25T00:07:59.510Z,15.53
2023-05-25T00:10:29.583Z,15.55
2023-05-25T00:12:59.671Z,15.56
2023-05-25T00:15:30.075Z,15.56
2023-05-25T00:18:00.319Z,15.53
2023-05-25T00:20:33.367Z,15.55
2023-05-25T00:23:04.233Z,15.58
2023-05-25T00:25:34.342Z,15.58
2023-05-25T00:28:04.764Z,15.61
2023-05-25T00:30:34.852Z,15.67
2023-05-25T00:33:05.048Z,15.69
2023-05-25T00:35:37.960Z,15.71
2023-05-25T00:38:08.070Z,15.73
2023-05-25T00:40:38.804Z,15.77
2023-05-25T00:43:11.170Z,15.81
2023-05-25T00:45:42.013Z,15.83
2023-05-25T00:48:13.846Z,15.87
2023-05-25T00:50:47.542Z,15.88
2023-05-25T00:53:20.665Z,15.89
2023-05-25T00:55:56.098Z,15.89
2023-05-25T00:58:29.957Z,15.95
2023-05-25T01:01:01.416Z,16.00
2023-05-25T01:03:38.107Z,16.03
2023-05-25T01:06:15.359Z,16.07
2023-05-25T01:08:58.144Z,16.04
2023-05-25T01:11:40.316Z,16.05
2023-05-25T01:14:11.754Z,16.05
2023-05-25T01:16:42.822Z,16.01
2023-05-25T01:19:13.440Z,15.97
2023-05-25T01:21:50.819Z,15.90
2023-05-25T01:24:31.310Z,15.85
2023-05-25T01:27:06.785Z,15.77
2023-05-25T01:29:52.922Z,15.70
2023-05-25T01:32:26.544Z,15.63
2023-05-25T01:34:58.494Z,15.52
2023-05-25T01:37:32.326Z,15.47
2023-05-25T01:40:02.347Z,15.41
2023-05-25T01:42:32.859Z,15.40
2023-05-25T01:45:03.448Z,15.37
2023-05-25T01:47:42.815Z,15.31
2023-05-25T01:50:25.404Z,15.28
2023-05-25T01:53:06.640Z,15.23
2023-05-25T01:55:46.102Z,15.18
2023-05-25T01:58:19.608Z,15.14
2023-05-25T02:00:52.569Z,15.09
2023-05-25T02:03:23.042Z,15.05
2023-05-25T02:05:53.542Z,15.02
2023-05-25T02:08:26.316Z,14.97
2023-05-25T02:10:56.417Z,14.93
2023-05-25T02:13:26.502Z,14.90
2023-05-25T02:15:56.937Z,14.87
2023-05-25T02:18:27.922Z,14.79
2023-05-25T02:20:58.175Z,14.76
2023-05-25T02:23:31.427Z,14.73
2023-05-25T02:26:01.694Z,14.70
2023-05-25T02:28:31.807Z,14.67
2023-05-25T02:31:01.969Z,14.67
2023-05-25T02:33:32.288Z,14.66
2023-05-25T02:36:02.406Z,14.66
2023-05-25T02:38:35.296Z,14.64
2023-05-25T02:41:05.503Z,14.60
2023-05-25T02:43:39.494Z,14.61
2023-05-25T02:46:09.700Z,14.63
2023-05-25T02:48:42.072Z,14.65
2023-05-25T02:51:12.491Z,14.68
2023-05-25T02:53:45.276Z,14.73
2023-05-25T02:56:15.612Z,14.77
2023-05-25T02:58:46.112Z,14.79
2023-05-25T03:01:20.930Z,14.78
2023-05-25T03:03:56.164Z,14.75
2023-05-25T03:06:28.924Z,14.70
2023-05-25T03:09:05.342Z,14.68
2023-05-25T03:11:36.108Z,14.68
2023-05-25T03:14:08.730Z,14.69
2023-05-25T03:16:39.353Z,14.72
2023-05-25T03:19:11.314Z,14.73
2023-05-25T03:21:41.957Z,14.69
2023-05-25T03:24:20.846Z,14.70
2023-05-25T03:26:51.524Z,14.73
2023-05-25T03:29:21.866Z,14.75
2023-05-25T03:31:52.275Z,14.77
2023-05-25T03:34:26.553Z,14.79
2023-05-25T03:37:01.381Z,14.82
2023-05-25T03:39:34.712Z,14.87
2023-05-25T03:42:04.895Z,14.93
2023-05-25T03:44:35.567Z,14.98
2023-05-25T03:47:05.920Z,14.98
2023-05-25T03:49:38.892Z,15.05
2023-05-25T03:52:09.555Z,15.09
2023-05-25T03:54:42.348Z,15.13
2023-05-25T03:57:12.667Z,15.14
2023-05-25T03:59:42.954Z,15.18
2023-05-25T04:02:13.232Z,15.27
2023-05-25T04:04:44.338Z,15.36
2023-05-25T04:07:16.078Z,15.43
2023-05-25T04:09:48.786Z,15.51
2023-05-25T04:12:20.497Z,15.64
2023-05-25T04:14:51.293Z,15.76
2023-05-25T04:17:25.031Z,15.90
2023-05-25T04:19:55.916Z,16.04
2023-05-25T04:22:26.366Z,16.20
2023-05-25T04:24:59.042Z,16.38
2023-05-25T04:27:29.890Z,16.58
2023-05-25T04:30:01.789Z,16.78
2023-05-25T04:32:49.726Z,16.97
2023-05-25T04:35:32.896Z,17.18
2023-05-25T04:38:05.005Z,17.41
2023-05-25T04:40:37.954Z,17.66
2023-05-25T04:43:10.116Z,17.90
2023-05-25T04:45:40.401Z,18.12
2023-05-25T04:48:11.721Z,18.31
2023-05-25T04:50:43.195Z,18.50
2023-05-25T04:53:13.929Z,18.71
2023-05-25T04:55:49.905Z,18.89
2023-05-25T04:58:20.145Z,19.01
2023-05-25T05:00:52.717Z,19.11
2023-05-25T05:03:24.403Z,19.27
2023-05-25T05:05:55.024Z,19.42
2023-05-25T05:08:29.049Z,19.58
2023-05-25T05:11:01.824Z,19.70
2023-05-25T05:13:32.418Z,19.86
2023-05-25T05:16:02.827Z,20.06
2023-05-25T05:18:33.470Z,20.24
2023-05-25T05:21:03.592Z,20.41
2023-05-25T05:23:34.800Z,20.56
2023-05-25T05:26:11.171Z,20.74
2023-05-25T05:28:41.395Z,20.88
2023-05-25T05:31:12.544Z,21.07
2023-05-25T05:33:43.360Z,21.28
2023-05-25T05:36:14.195Z,21.42
2023-05-25T05:38:46.927Z,21.61
2023-05-25T05:41:20.108Z,21.76
2023-05-25T05:43:52.716Z,21.87
2023-05-25T05:46:22.964Z,21.91
2023-05-25T05:48:57.237Z,22.03
2023-05-25T05:51:27.449Z,22.19
2023-05-25T05:53:57.973Z,22.48
2023-05-25T05:56:31.432Z,22.69
2023-05-25T05:59:01.801Z,22.87
2023-05-25T06:01:33.269Z,22.99
2023-05-25T06:04:03.464Z,23.15
2023-05-25T06:06:35.179Z,23.39
2023-05-25T06:09:06.946Z,23.56
2023-05-25T06:11:40.826Z,23.76
2023-05-25T06:14:12.090Z,23.97
2023-05-25T06:16:48.299Z,24.19
2023-05-25T06:19:18.853Z,24.39
2023-05-25T06:21:48.990Z,24.61
2023-05-25T06:24:19.302Z,24.73
2023-05-25T06:26:52.084Z,24.89
2023-05-25T06:29:23.746Z,25.09
2023-05-25T06:31:54.462Z,25.26
2023-05-25T06:34:28.434Z,25.37
2023-05-25T06:36:58.770Z,25.55
2023-05-25T06:39:29.448Z,25.72
2023-05-25T06:42:02.164Z,25.89
2023-05-25T06:44:35.028Z,26.06
2023-05-25T06:47:05.732Z,26.25
2023-05-25T06:49:35.897Z,26.41
2023-05-25T06:52:05.987Z,26.51
2023-05-25T06:54:36.193Z,26.65
2023-05-25T06:57:09.457Z,26.89
2023-05-25T06:59:39.576Z,27.10
2023-05-25T07:02:09.818Z,27.27
2023-05-25T07:04:39.965Z,27.33
2023-05-25T07:07:10.261Z,27.49
2023-05-25T07:09:40.329Z,27.66
2023-05-25T07:12:15.558Z,27.81
2023-05-25T07:14:48.248Z,27.96
2023-05-25T07:17:18.778Z,28.05
2023-05-25T07:19:50.232Z,28.17
2023-05-25T07:22:20.685Z,28.30
2023-05-25T07:24:51.024Z,28.42
2023-05-25T07:27:25.677Z,28.47
2023-05-25T07:29:55.803Z,28.36
2023-05-25T07:32:27.101Z,28.49
2023-05-25T07:34:57.352Z,28.80
2023-05-25T07:37:27.448Z,29.03
2023-05-25T07:39:57.820Z,29.15
2023-05-25T07:42:34.523Z,29.29
2023-05-25T07:45:04.751Z,29.55
2023-05-25T07:47:35.181Z,28.82
2023-05-25T07:50:05.687Z,28.01
2023-05-25T07:52:35.966Z,27.42
2023-05-25T07:55:06.801Z,27.42
2023-05-25T07:57:39.771Z,27.26
2023-05-25T08:00:12.841Z,26.92
2023-05-25T08:02:47.085Z,27.39
2023-05-25T08:05:17.414Z,27.61
2023-05-25T08:07:48.495Z,28.42
2023-05-25T08:10:18.750Z,28.56
2023-05-25T08:12:52.703Z,28.07
2023-05-25T08:15:22.896Z,27.76
2023-05-25T08:17:56.936Z,28.09
2023-05-25T08:20:30.988Z,28.28
2023-05-25T08:23:03.486Z,28.85
2023-05-25T08:25:33.817Z,28.52
2023-05-25T08:28:06.639Z,28.03
2023-05-25T08:30:40.309Z,27.52
2023-05-25T08:33:11.508Z,27.72
2023-05-25T08:35:43.592Z,27.39
2023-05-25T08:38:14.290Z,27.14
2023-05-25T08:40:45.924Z,26.73
2023-05-25T08:43:18.645Z,26.52
2023-05-25T08:45:49.277Z,26.37
2023-05-25T08:48:39.493Z,26.34
2023-05-25T08:51:12.184Z,26.52
2023-05-25T08:53:44.161Z,27.44
2023-05-25T08:56:20.093Z,28.27
2023-05-25T08:59:00.867Z,29.02
2023-05-25T09:01:35.379Z,29.74
2023-05-25T09:04:06.996Z,29.68
2023-05-25T09:06:38.749Z,29.15
2023-05-25T09:09:09.535Z,28.55
2023-05-25T09:11:42.232Z,28.00
2023-05-25T09:14:17.300Z,27.84
2023-05-25T09:16:49.198Z,28.66
2023-05-25T09:19:19.625Z,29.44
2023-05-25T09:21:52.939Z,30.27
2023-05-25T09:24:27.387Z,31.32
2023-05-25T09:26:57.518Z,32.15
2023-05-25T09:29:30.394Z,32.96
2023-05-25T09:32:00.933Z,33.24
2023-05-25T09:34:35.764Z,32.30
2023-05-25T09:37:06.927Z,31.36
2023-05-25T09:39:37.176Z,30.26
2023-05-25T09:42:08.972Z,29.92
2023-05-25T09:44:43.012Z,30.66
2023-05-25T09:47:14.143Z,31.73
2023-05-25T09:49:47.838Z,32.79
2023-05-25T09:52:18.558Z,33.42
2023-05-25T09:54:49.013Z,33.94
2023-05-25T09:57:19.556Z,34.36
2023-05-25T09:59:52.252Z,33.15
2023-05-25T10:02:22.741Z,32.15
2023-05-25T10:04:52.930Z,31.03
2023-05-25T10:07:23.557Z,30.88
2023-05-25T10:09:55.567Z,31.54
2023-05-25T10:12:27.934Z,32.48
2023-05-25T10:15:02.857Z,33.21
2023-05-25T10:17:35.504Z,33.71
2023-05-25T10:20:10.960Z,33.88
2023-05-25T10:22:45.083Z,34.25
2023-05-25T10:25:24.819Z,34.61
2023-05-25T10:28:00.882Z,34.76
2023-05-25T10:30:34.298Z,35.17
2023-05-25T10:33:06.103Z,35.34
2023-05-25T10:35:46.610Z,34.43
2023-05-25T10:38:22.365Z,33.07
2023-05-25T10:40:53.906Z,32.71
2023-05-25T10:43:24.954Z,33.44
2023-05-25T10:45:58.561Z,34.31
2023-05-25T10:48:38.624Z,35.20
2023-05-25T10:51:11.866Z,35.28
2023-05-25T10:53:42.386Z,34.07
2023-05-25T10:56:13.573Z,32.62
2023-05-25T10:58:46.719Z,32.01
2023-05-25T11:01:19.441Z,31.83
2023-05-25T11:03:56.793Z,32.63
2023-05-25T11:07:01.997Z,33.15
2023-05-25T11:09:33.952Z,32.44
2023-05-25T11:12:05.167Z,33.00
2023-05-25T11:14:38.483Z,34.24
2023-05-25T11:17:15.093Z,34.23
2023-05-25T11:19:49.474Z,34.35
2023-05-25T11:22:22.877Z,33.23
2023-05-25T11:24:54.638Z,32.99
2023-05-25T11:27:26.832Z,32.45
2023-05-25T11:30:00.543Z,31.83
2023-05-25T11:32:33.419Z,33.08
2023-05-25T11:35:03.561Z,34.70
2023-05-25T11:37:33.771Z,35.72
2023-05-25T11:40:05.808Z,36.62
2023-05-25T11:42:36.725Z,35.54
2023-05-25T11:45:07.478Z,33.90
2023-05-25T11:47:40.173Z,33.01
2023-05-25T11:50:19.088Z,34.59
2023-05-25T11:52:49.519Z,36.30
2023-05-25T11:55:19.615Z,37.64
2023-05-25T11:57:49.927Z,38.39
2023-05-25T12:00:28.736Z,38.99
2023-05-25T12:03:02.512Z,38.23
2023-05-25T12:05:41.551Z,37.93
2023-05-25T12:08:14.544Z,36.98
2023-05-25T12:10:54.700Z,34.99
2023-05-25T12:13:26.396Z,33.70
2023-05-25T12:16:00.319Z,33.67
2023-05-25T12:18:33.815Z,33.62
2023-05-25T12:21:08.351Z,34.30
2023-05-25T12:23:39.171Z,34.82
2023-05-25T12:26:13.405Z,35.93
2023-05-25T12:28:52.409Z,35.15
2023-05-25T12:31:29.203Z,36.66
2023-05-25T12:34:26.876Z,38.23
2023-05-25T12:36:58.348Z,39.44
2023-05-25T12:39:42.500Z,40.25
2023-05-25T12:42:17.786Z,38.56
2023-05-25T12:44:49.500Z,36.25
2023-05-25T12:47:22.913Z,36.94
2023-05-25T12:50:14.086Z,38.09
2023-05-25T12:52:49.194Z,36.54
2023-05-25T12:55:25.992Z,34.53
2023-05-25T12:57:58.238Z,32.97
2023-05-25T13:00:31.917Z,33.30
2023-05-25T13:03:07.995Z,32.62
2023-05-25T13:05:41.323Z,32.86
2023-05-25T13:08:13.765Z,32.67
2023-05-25T13:10:46.504Z,34.20
2023-05-25T13:13:18.303Z,34.94
2023-05-25T13:15:50.383Z,33.40
2023-05-25T13:18:21.458Z,31.96
2023-05-25T13:20:56.765Z,30.88
2023-05-25T13:23:32.275Z,30.11
2023-05-25T13:26:02.369Z,29.73
2023-05-25T13:28:32.618Z,29.44
2023-05-25T13:31:02.880Z,29.06
2023-05-25T13:33:33.159Z,28.64
2023-05-25T13:36:10.773Z,28.41
2023-05-25T13:38:41.505Z,28.46
2023-05-25T13:41:11.644Z,28.52
2023-05-25T13:43:41.722Z,28.47
2023-05-25T13:46:21.844Z,28.42
2023-05-25T13:49:01.872Z,28.20
2023-05-25T13:51:35.873Z,28.01
2023-05-25T13:54:06.130Z,27.90
2023-05-25T13:56:36.289Z,27.84
2023-05-25T13:59:07.555Z,27.65
2023-05-25T14:01:37.669Z,27.47
2023-05-25T14:04:07.884Z,27.61
2023-05-25T14:06:40.626Z,27.79
2023-05-25T14:09:12.692Z,27.85
2023-05-25T14:11:44.020Z,27.87
2023-05-25T14:14:27.117Z,27.78
2023-05-25T14:17:01.449Z,27.82
2023-05-25T14:19:33.034Z,27.84
2023-05-25T14:24:39.745Z,27.99
2023-05-25T14:27:09.946Z,28.02
2023-05-25T14:29:40.205Z,27.98
2023-05-25T14:32:10.405Z,27.98
2023-05-25T14:34:40.465Z,27.80
2023-05-25T14:37:13.716Z,27.75
2023-05-25T14:39:43.958Z,27.80
2023-05-25T14:42:14.176Z,27.85
2023-05-25T14:44:44.230Z,27.91
2023-05-25T14:47:14.316Z,27.87
2023-05-25T14:49:44.425Z,27.88
2023-05-25T14:52:17.186Z,27.82
2023-05-25T14:54:47.697Z,27.73
2023-05-25T14:57:18.611Z,27.63
2023-05-25T14:59:51.779Z,27.44
2023-05-25T15:02:22.066Z,27.20
2023-05-25T15:04:54.282Z,26.92
2023-05-25T15:07:27.545Z,26.70
2023-05-25T15:09:57.904Z,26.54
2023-05-25T15:12:28.030Z,26.35
2023-05-25T15:14:58.353Z,26.17
2023-05-25T15:17:28.653Z,26.09
2023-05-25T15:19:58.920Z,26.16
2023-05-25T15:22:31.669Z,26.20
2023-05-25T15:25:02.726Z,26.26
2023-05-25T15:27:34.929Z,26.33
2023-05-25T15:30:07.334Z,26.37
2023-05-25T15:32:37.570Z,26.28
2023-05-25T15:35:08.808Z,26.25
2023-05-25T15:37:41.801Z,26.19
2023-05-25T15:40:13.555Z,26.16
2023-05-25T15:42:43.886Z,26.15
2023-05-25T15:45:15.343Z,26.10
2023-05-25T15:47:45.570Z,26.01
2023-05-25T15:50:16.327Z,25.92
2023-05-25T15:52:49.068Z,25.86
2023-05-25T15:55:19.426Z,25.82
2023-05-25T15:57:49.747Z,25.74
2023-05-25T16:00:20.833Z,25.64
2023-05-25T16:02:51.355Z,25.54
2023-05-25T16:05:21.783Z,25.39
2023-05-25T16:07:54.656Z,25.36
2023-05-25T16:10:24.826Z,25.23
2023-05-25T16:12:54.993Z,25.18
2023-05-25T16:15:25.785Z,25.11
2023-05-25T16:17:56.053Z,25.06
2023-05-25T16:20:26.499Z,24.99
2023-05-25T16:22:59.367Z,24.97
2023-05-25T16:25:29.554Z,24.91
2023-05-25T16:27:59.801Z,24.87
2023-05-25T16:30:30.151Z,24.88
2023-05-25T16:33:00.289Z,24.97
2023-05-25T16:35:30.449Z,25.05
2023-05-25T16:38:03.275Z,25.01
2023-05-25T16:40:33.832Z,25.00
2023-05-25T16:43:07.021Z,24.99
2023-05-25T16:45:37.554Z,24.96
2023-05-25T16:48:08.072Z,24.89
2023-05-25T16:50:38.263Z,24.86
2023-05-25T16:53:11.065Z,24.85
2023-05-25T16:55:41.454Z,24.83
2023-05-25T16:58:12.019Z,24.80
2023-05-25T17:00:42.680Z,24.72
2023-05-25T17:03:13.098Z,24.66
2023-05-25T17:05:43.428Z,24.62
2023-05-25T17:08:16.366Z,24.58
2023-05-25T17:10:50.140Z,24.53
2023-05-25T17:13:20.265Z,24.46
2023-05-25T17:15:50.516Z,24.27
2023-05-25T17:18:21.979Z,24.19
2023-05-25T17:20:52.113Z,24.20
2023-05-25T17:23:24.888Z,24.20
2023-05-25T17:25:55.328Z,24.19
2023-05-25T17:28:26.502Z,24.17
2023-05-25T17:30:59.022Z,24.15
2023-05-25T17:33:29.573Z,24.11
2023-05-25T17:35:59.893Z,24.06
2023-05-25T17:38:34.558Z,23.97
2023-05-25T17:41:04.803Z,23.94
2023-05-25T17:43:35.064Z,23.90
2023-05-25T17:46:05.369Z,23.91
2023-05-25T17:48:35.772Z,23.82
2023-05-25T17:51:06.378Z,23.75
2023-05-25T17:53:39.294Z,23.70
2023-05-25T17:56:09.599Z,23.70
2023-05-25T17:58:39.756Z,23.61
2023-05-25T18:01:10.006Z,23.55
2023-05-25T18:03:40.722Z,23.51
2023-05-25T18:06:11.153Z,23.49
2023-05-25T18:08:43.916Z,23.46
2023-05-25T18:11:14.087Z,23.44
2023-05-25T18:13:44.346Z,23.39
2023-05-25T18:16:14.916Z,23.34
2023-05-25T18:18:45.749Z,23.27
2023-05-25T18:21:15.825Z,23.20
2023-05-25T18:23:48.898Z,23.15
2023-05-25T18:26:19.388Z,23.11
2023-05-25T18:28:50.095Z,23.08
2023-05-25T18:31:20.500Z,23.02
2023-05-25T18:33:50.845Z,22.97
2023-05-25T18:36:21.465Z,22.86
2023-05-25T18:38:54.207Z,22.76
2023-05-25T18:41:24.645Z,22.68
2023-05-25T18:43:54.823Z,22.64
2023-05-25T18:46:26.259Z,22.58
2023-05-25T18:48:56.815Z,22.51
2023-05-25T18:51:27.339Z,22.47
2023-05-25T18:54:00.537Z,22.41
2023-05-25T18:56:30.822Z,22.37
2023-05-25T18:59:00.950Z,22.30
2023-05-25T19:01:31.299Z,22.28
2023-05-25T19:04:01.767Z,22.23
2023-05-25T19:06:32.615Z,22.19
2023-05-25T19:09:05.362Z,22.14
2023-05-25T19:11:35.759Z,22.12
2023-05-25T19:14:06.143Z,22.01
2023-05-25T19:16:36.516Z,21.93
2023-05-25T19:19:06.909Z,21.87
2023-05-25T19:21:37.102Z,21.83
2023-05-25T19:24:10.879Z,21.74
2023-05-25T19:26:41.100Z,21.70
2023-05-25T19:29:11.157Z,21.64
2023-05-25T19:31:41.236Z,21.60
2023-05-25T19:34:11.380Z,21.52
2023-05-25T19:36:41.729Z,21.46
2023-05-25T19:39:14.561Z,21.42
2023-05-25T19:41:47.668Z,21.38
2023-05-25T19:44:24.262Z,21.28
2023-05-25T19:46:54.417Z,21.26
2023-05-25T19:49:24.754Z,21.22
2023-05-25T19:51:55.045Z,21.18
2023-05-25T19:54:27.928Z,21.11
2023-05-25T19:56:58.083Z,21.07
2023-05-25T19:59:30.401Z,20.97
2023-05-25T20:02:00.518Z,20.96
2023-05-25T20:04:33.746Z,20.90
2023-05-25T20:07:03.954Z,20.79
2023-05-25T20:09:38.661Z,20.76
2023-05-25T20:12:09.658Z,20.77
2023-05-25T20:14:42.551Z,20.78
2023-05-25T20:17:12.686Z,20.79
2023-05-25T20:19:43.287Z,20.78
2023-05-25T20:22:13.517Z,20.78
2023-05-25T20:24:46.235Z,20.74
2023-05-25T20:27:16.477Z,20.69
2023-05-25T20:29:46.816Z,20.61
2023-05-25T20:32:16.994Z,20.54
2023-05-25T20:34:47.093Z,20.47
2023-05-25T20:37:17.287Z,20.42
2023-05-25T20:39:50.089Z,20.39
2023-05-25T20:42:20.164Z,20.37
2023-05-25T20:44:50.383Z,20.32
2023-05-25T20:47:20.822Z,20.26
2023-05-25T20:49:50.989Z,20.18
2023-05-25T20:52:21.490Z,20.13
2023-05-25T20:54:54.261Z,20.08
2023-05-25T20:57:24.494Z,20.02
2023-05-25T21:00:24.452Z,19.90
2023-05-25T21:02:56.801Z,19.79
2023-05-25T21:05:27.134Z,19.76
2023-05-25T21:07:57.204Z,19.72
2023-05-25T21:10:31.420Z,19.63
2023-05-25T21:13:01.924Z,19.59
2023-05-25T21:15:32.026Z,19.54
2023-05-25T21:18:03.654Z,19.46
2023-05-25T21:20:33.935Z,19.42
2023-05-25T21:23:04.994Z,19.36
2023-05-25T21:25:40.200Z,19.31
2023-05-25T21:28:13.270Z,19.24
2023-05-25T21:30:48.893Z,19.19
2023-05-25T21:33:19.020Z,19.15
2023-05-25T21:35:49.099Z,19.12
2023-05-25T21:38:19.251Z,19.09
2023-05-25T21:40:51.934Z,19.09
2023-05-25T21:43:22.170Z,19.08
2023-05-25T21:45:52.525Z,19.07
2023-05-25T21:48:22.744Z,19.05
2023-05-25T21:50:54.270Z,19.04
2023-05-25T21:53:24.635Z,19.04
2023-05-25T21:55:57.446Z,19.03
2023-05-25T21:58:27.658Z,19.03
2023-05-25T22:00:58.038Z,19.03
2023-05-25T22:03:28.240Z,19.03
2023-05-25T22:05:58.485Z,19.07
2023-05-25T22:08:28.591Z,19.08
2023-05-25T22:11:01.551Z,19.03
2023-05-25T22:13:31.665Z,19.02
2023-05-25T22:16:01.731Z,19.02
2023-05-25T22:18:31.795Z,18.97
2023-05-25T22:21:01.949Z,18.93
2023-05-25T22:23:32.100Z,18.80
2023-05-25T22:26:05.227Z,18.74
2023-05-25T22:28:35.519Z,18.79
2023-05-25T22:31:05.857Z,18.88
2023-05-25T22:33:50.739Z,18.90
2023-05-25T22:36:21.002Z,18.89
2023-05-25T22:38:51.080Z,18.87
2023-05-25T22:41:23.762Z,18.86
2023-05-25T22:43:53.959Z,18.84
2023-05-25T22:46:24.033Z,18.84
2023-05-25T22:48:54.072Z,18.84
2023-05-25T22:51:24.828Z,18.87
2023-05-25T22:53:54.949Z,18.86
2023-05-25T22:56:28.233Z,18.79
2023-05-25T22:58:58.441Z,18.74
2023-05-25T23:01:28.632Z,18.61
2023-05-25T23:03:59.812Z,18.54
2023-05-25T23:06:30.044Z,18.48
2023-05-25T23:09:00.079Z,18.46
2023-05-25T23:11:32.971Z,18.39
2023-05-25T23:14:03.567Z,18.35
2023-05-25T23:16:34.296Z,18.29
2023-05-25T23:19:04.478Z,18.25
2023-05-25T23:21:34.528Z,18.23
2023-05-25T23:24:07.987Z,18.18
2023-05-25T23:26:40.648Z,18.16
2023-05-25T23:29:10.890Z,18.13
2023-05-25T23:31:41.496Z,18.10
2023-05-25T23:34:11.757Z,18.06
2023-05-25T23:36:43.223Z,17.99
2023-05-25T23:39:13.308Z,17.91
2023-05-25T23:41:46.026Z,17.85
2023-05-25T23:44:16.382Z,17.80
2023-05-25T23:46:46.569Z,17.75
2023-05-25T23:49:16.782Z,17.72
2023-05-25T23:51:46.902Z,17.65
2023-05-25T23:54:17.164Z,17.58
2023-05-25T23:56:49.935Z,17.51
2023-05-25T23:59:20.147Z,17.47
